createdAt,value
2023-05-05T00:00:31.201Z,14.90
2023-05-05T00:03:19.629Z,15.00
2023-05-05T00:06:07.121Z,14.90
2023-05-05T00:08:53.708Z,14.90
2023-05-05T00:11:40.003Z,15.00
2023-05-05T00:14:26.520Z,15.00
2023-05-05T00:17:13.474Z,15.10
2023-05-05T00:20:01.723Z,15.10
2023-05-05T00:22:48.136Z,15.00
2023-05-05T00:25:34.653Z,14.80
2023-05-05T00:28:21.913Z,14.50
2023-05-05T00:31:08.722Z,14.40
2023-05-05T00:33:56.290Z,14.30
2023-05-05T00:36:44.622Z,14.00
2023-05-05T00:39:30.978Z,14.00
2023-05-05T00:42:17.426Z,14.10
2023-05-05T00:45:04.134Z,14.10
2023-05-05T00:47:53.314Z,14.20
2023-05-05T00:50:40.751Z,14.10
2023-05-05T00:53:29.910Z,13.90
2023-05-05T00:56:19.357Z,13.90
2023-05-05T00:59:05.961Z,14.10
2023-05-05T01:01:52.567Z,14.10
2023-05-05T01:04:39.134Z,13.90
2023-05-05T01:07:36.471Z,13.90
2023-05-05T01:10:31.943Z,13.80
2023-05-05T01:13:27.275Z,13.90
2023-05-05T01:16:19.453Z,14.10
2023-05-05T01:19:22.388Z,14.10
2023-05-05T01:22:12.785Z,14.30
2023-05-05T01:25:17.280Z,14.40
2023-05-05T01:28:20.335Z,14.50
2023-05-05T01:31:35.125Z,14.20
2023-05-05T01:34:27.209Z,14.00
2023-05-05T01:37:19.523Z,14.00
2023-05-05T01:40:09.601Z,14.20
2023-05-05T01:42:57.339Z,14.30
2023-05-05T01:45:46.672Z,14.50
2023-05-05T01:48:36.949Z,14.60
2023-05-05T01:51:25.561Z,14.80
2023-05-05T01:54:12.321Z,14.90
2023-05-05T01:57:00.823Z,15.10
2023-05-05T01:59:47.913Z,15.20
2023-05-05T02:02:37.056Z,15.30
2023-05-05T02:05:27.521Z,15.40
2023-05-05T02:08:14.619Z,15.50
2023-05-05T02:11:02.085Z,15.60
2023-05-05T02:13:50.984Z,15.70
2023-05-05T02:16:41.099Z,15.70
2023-05-05T02:19:31.375Z,15.70
2023-05-05T02:22:19.902Z,15.70
2023-05-05T02:25:07.982Z,15.80
2023-05-05T02:27:58.238Z,15.80
2023-05-05T02:30:45.236Z,15.70
2023-05-05T02:33:36.608Z,15.70
2023-05-05T02:36:27.820Z,15.80
2023-05-05T02:39:26.152Z,15.90
2023-05-05T02:42:19.611Z,16.00
2023-05-05T02:45:12.982Z,16.00
2023-05-05T02:48:04.223Z,16.10
2023-05-05T02:50:54.697Z,16.10
2023-05-05T02:53:50.085Z,16.10
2023-05-05T02:56:43.714Z,16.20
2023-05-05T02:59:38.101Z,16.20
2023-05-05T03:02:31.187Z,16.30
2023-05-05T03:05:23.263Z,16.30
2023-05-05T03:08:17.818Z,16.20
2023-05-05T03:11:08.580Z,16.20
2023-05-05T03:14:06.574Z,16.20
2023-05-05T03:16:56.390Z,16.20
2023-05-05T03:19:43.800Z,16.20
2023-05-05T03:22:31.442Z,16.20
2023-05-05T03:25:18.180Z,16.20
2023-05-05T03:28:05.362Z,16.20
2023-05-05T03:30:53.525Z,16.00
2023-05-05T03:33:40.912Z,15.80
2023-05-05T03:36:29.497Z,15.70
2023-05-05T03:39:18.741Z,15.70
2023-05-05T03:42:06.342Z,15.80
2023-05-05T03:44:54.694Z,15.70
2023-05-05T03:47:44.147Z,15.70
2023-05-05T03:50:31.496Z,15.70
2023-05-05T03:53:17.724Z,15.80
2023-05-05T03:56:04.946Z,15.80
2023-05-05T03:58:52.470Z,15.90
2023-05-05T04:01:39.145Z,15.80
2023-05-05T04:04:27.488Z,15.60
2023-05-05T04:07:14.341Z,15.50
2023-05-05T04:10:01.407Z,15.40
2023-05-05T04:12:48.288Z,15.30
2023-05-05T04:15:35.162Z,15.10
2023-05-05T04:18:22.114Z,15.20
2023-05-05T04:21:11.085Z,15.20
2023-05-05T04:23:58.825Z,15.20
2023-05-05T04:26:45.744Z,15.30
2023-05-05T04:29:32.822Z,15.40
2023-05-05T04:32:20.214Z,15.50
2023-05-05T04:35:08.758Z,15.60
2023-05-05T04:37:56.840Z,15.60
2023-05-05T04:40:44.274Z,15.70
2023-05-05T04:43:31.892Z,15.80
2023-05-05T04:46:18.845Z,15.90
2023-05-05T04:49:05.865Z,16.00
2023-05-05T04:51:53.749Z,16.00
2023-05-05T04:54:42.496Z,16.20
2023-05-05T04:57:30.474Z,16.30
2023-05-05T05:00:18.219Z,16.30
2023-05-05T05:03:05.158Z,16.30
2023-05-05T05:05:51.864Z,16.30
2023-05-05T05:08:38.938Z,16.50
2023-05-05T05:11:27.828Z,16.60
2023-05-05T05:14:14.582Z,16.50
2023-05-05T05:17:01.506Z,16.60
2023-05-05T05:19:48.499Z,16.60
2023-05-05T05:22:38.223Z,16.60
2023-05-05T05:25:28.900Z,16.60
2023-05-05T05:28:16.790Z,16.70
2023-05-05T05:31:08.578Z,17.00
2023-05-05T05:33:56.106Z,17.30
2023-05-05T05:36:43.511Z,17.60
2023-05-05T05:39:30.358Z,17.70
2023-05-05T05:42:17.229Z,17.90
2023-05-05T05:45:06.313Z,17.90
2023-05-05T05:47:54.077Z,17.90
2023-05-05T05:50:40.969Z,18.00
2023-05-05T05:53:27.511Z,18.10
2023-05-05T05:56:14.833Z,18.20
2023-05-05T05:59:04.542Z,18.40
2023-05-05T06:01:52.679Z,18.60
2023-05-05T06:04:39.239Z,18.70
2023-05-05T06:07:26.281Z,18.80
2023-05-05T06:10:26.399Z,18.90
2023-05-05T06:13:17.423Z,18.90
2023-05-05T06:16:08.315Z,19.00
2023-05-05T06:18:56.731Z,19.00
2023-05-05T06:21:43.347Z,19.00
2023-05-05T06:24:31.987Z,19.10
2023-05-05T06:27:19.724Z,19.10
2023-05-05T06:30:07.909Z,19.20
2023-05-05T06:32:55.303Z,19.30
2023-05-05T06:35:43.336Z,19.40
2023-05-05T06:38:30.866Z,19.40
2023-05-05T06:41:18.067Z,19.20
2023-05-05T06:44:04.921Z,19.10
2023-05-05T06:46:52.386Z,19.10
2023-05-05T06:49:39.435Z,19.10
2023-05-05T06:52:27.904Z,19.10
2023-05-05T06:55:15.443Z,19.00
2023-05-05T06:58:02.376Z,19.10
2023-05-05T07:00:48.987Z,19.10
2023-05-05T07:03:35.810Z,19.20
2023-05-05T07:06:22.787Z,19.10
2023-05-05T07:09:10.746Z,19.20
2023-05-05T07:11:57.513Z,19.20
2023-05-05T07:14:44.507Z,19.20
2023-05-05T07:17:31.334Z,19.50
2023-05-05T07:20:18.092Z,19.50
2023-05-05T07:23:05.086Z,19.70
2023-05-05T07:25:53.044Z,19.80
2023-05-05T07:28:39.741Z,19.80
2023-05-05T07:31:27.843Z,19.90
2023-05-05T07:34:14.531Z,20.00
2023-05-05T07:37:01.537Z,20.20
2023-05-05T07:39:49.058Z,20.90
2023-05-05T07:42:37.115Z,21.80
2023-05-05T07:45:23.975Z,22.10
2023-05-05T07:48:10.742Z,22.50
2023-05-05T07:50:57.449Z,23.10
2023-05-05T07:53:44.049Z,23.10
2023-05-05T07:56:30.775Z,22.60
2023-05-05T07:59:19.087Z,22.30
2023-05-05T08:02:06.627Z,22.00
2023-05-05T08:04:53.446Z,21.80
2023-05-05T08:07:41.318Z,21.90
2023-05-05T08:10:28.254Z,22.40
2023-05-05T08:13:14.871Z,23.00
2023-05-05T08:16:03.112Z,23.10
2023-05-05T08:18:50.158Z,23.10
2023-05-05T08:21:36.690Z,24.00
2023-05-05T08:24:23.040Z,24.00
2023-05-05T08:27:09.410Z,23.80
2023-05-05T08:29:57.688Z,24.20
2023-05-05T08:32:46.824Z,24.70
2023-05-05T08:35:33.695Z,24.50
2023-05-05T08:38:20.619Z,24.20
2023-05-05T08:41:11.020Z,23.90
2023-05-05T08:43:57.522Z,23.40
2023-05-05T08:46:44.294Z,23.30
2023-05-05T08:49:39.191Z,22.90
2023-05-05T08:52:28.399Z,22.60
2023-05-05T08:55:24.036Z,22.30
2023-05-05T08:58:11.779Z,22.40
2023-05-05T09:01:01.490Z,22.20
2023-05-05T09:03:48.300Z,22.00
2023-05-05T09:06:37.180Z,21.90
2023-05-05T09:09:24.425Z,22.00
2023-05-05T09:12:10.922Z,22.00
2023-05-05T09:14:59.300Z,22.00
2023-05-05T09:17:46.493Z,21.80
2023-05-05T09:20:35.894Z,21.60
2023-05-05T09:23:23.854Z,21.70
2023-05-05T09:26:10.388Z,21.70
2023-05-05T09:28:56.885Z,21.60
2023-05-05T09:31:43.438Z,21.60
2023-05-05T09:34:30.127Z,21.60
2023-05-05T09:37:28.430Z,21.40
2023-05-05T09:40:18.372Z,21.40
2023-05-05T09:43:05.465Z,21.30
2023-05-05T09:45:52.279Z,21.20
2023-05-05T09:48:38.950Z,21.20
2023-05-05T09:51:31.649Z,21.10
2023-05-05T09:54:26.102Z,21.20
2023-05-05T09:57:28.749Z,21.10
2023-05-05T10:00:16.517Z,21.20
2023-05-05T10:03:04.141Z,21.40
2023-05-05T10:05:52.628Z,21.20
2023-05-05T10:08:39.305Z,21.20
2023-05-05T10:11:25.756Z,21.30
2023-05-05T10:14:15.559Z,21.40
2023-05-05T10:17:03.288Z,21.50
2023-05-05T10:19:53.160Z,21.70
2023-05-05T10:22:42.386Z,21.90
2023-05-05T10:25:32.225Z,22.20
2023-05-05T10:28:29.488Z,22.30
2023-05-05T10:31:26.377Z,22.20
2023-05-05T10:34:21.886Z,22.40
2023-05-05T10:37:08.745Z,22.40
2023-05-05T10:39:57.496Z,22.50
2023-05-05T10:42:44.693Z,22.80
2023-05-05T10:45:32.107Z,23.30
2023-05-05T10:48:27.981Z,23.70
2023-05-05T10:51:38.745Z,23.70
2023-05-05T10:54:34.624Z,24.10
2023-05-05T10:57:27.869Z,24.50
2023-05-05T11:00:50.024Z,24.60
2023-05-05T11:03:38.408Z,24.40
2023-05-05T11:06:25.446Z,24.20
2023-05-05T11:09:28.928Z,23.90
2023-05-05T11:12:15.906Z,23.90
2023-05-05T11:15:38.303Z,24.10
2023-05-05T11:18:40.463Z,24.20
2023-05-05T11:21:27.777Z,24.30
2023-05-05T11:24:29.544Z,24.20
2023-05-05T11:27:16.164Z,24.40
2023-05-05T11:30:08.514Z,24.60
2023-05-05T11:33:25.630Z,24.60
2023-05-05T11:36:14.802Z,25.00
2023-05-05T11:39:08.428Z,25.10
2023-05-05T11:42:13.984Z,25.20
2023-05-05T11:45:01.121Z,25.00
2023-05-05T11:47:47.843Z,24.70
2023-05-05T11:50:34.426Z,24.50
2023-05-05T11:53:22.727Z,24.00
2023-05-05T11:56:10.127Z,24.10
2023-05-05T11:59:08.875Z,24.30
2023-05-05T12:01:55.645Z,24.10
2023-05-05T12:04:42.057Z,24.20
2023-05-05T12:07:30.422Z,24.30
2023-05-05T12:10:25.199Z,24.60
2023-05-05T12:13:30.075Z,24.80
2023-05-05T12:16:19.378Z,25.10
2023-05-05T12:19:06.766Z,25.40
2023-05-05T12:21:54.259Z,25.50
2023-05-05T12:24:41.012Z,25.20
2023-05-05T12:27:30.086Z,25.40
2023-05-05T12:30:18.326Z,25.40
2023-05-05T12:33:05.683Z,25.20
2023-05-05T12:35:52.846Z,25.20
2023-05-05T12:38:39.763Z,25.30
2023-05-05T12:41:26.851Z,25.10
2023-05-05T12:44:14.480Z,25.00
2023-05-05T12:47:01.614Z,24.80
2023-05-05T12:49:49.786Z,24.60
